Accueil
METAR-TAF:

METAR-TAF

Aéroports :

Emmen, Suisse

latitude: 47-05-32N, longitude: 8-18-16E, altitude: 426 m

Observation

Le bulletin a été fait il y a 1 heure et 6 minutes, à 03:53 UTC
Vent calme
Température 0°C
Humidité 100%
Pression 1024 hPa
Visibilité: 2800 m
Nuages épars à une hauteur de 200 ft
Nuages fragmentés à une hauteur de 500 ft
Nuages fragmentés à une hauteur de 1000 ft
pluie faible, neige, brume

METAR: LSME 180353Z AUTO 00000KT 2800NDV -RASN BR SCT002 BKN005 BKN010 00/M00 Q1024 RMK

Heure: 05:59 (04:59 UTC)


TAF: absent

Observations et prévisions météorologiques de plus de 4000 aéroports (messages METAR et TAF).

Les stations disponibles sont représentées par des disques jaunes et rouges sur la carte.

Passer la souris dessus pour voir le nom de la station.

Cliquer dessus pour voir les observations et prévisions météorologiques.

Pour changer de carte: cliquez sur les boutons verts avec une croix noire pour zoomer, sur le bouton vert avec un tiret pour effectuer un zoom arrière, ou sur les flèches vertes pour les cartes adjacentes.


METAR-TAF: